createdAt,value
2022-09-01T00:01:03.281Z,6.13
2022-09-01T00:04:07.356Z,6.00
2022-09-01T00:07:11.649Z,6.97
2022-09-01T00:10:14.060Z,5.53
2022-09-01T00:13:16.991Z,7.00
2022-09-01T00:16:20.889Z,5.85
2022-09-01T00:19:25.180Z,7.00
2022-09-01T00:22:27.916Z,8.68
2022-09-01T00:25:30.410Z,6.53
2022-09-01T00:28:37.773Z,9.53
2022-09-01T00:31:40.849Z,6.63
2022-09-01T00:34:43.050Z,6.55
2022-09-01T00:37:45.553Z,6.88
2022-09-01T00:40:47.886Z,7.18
2022-09-01T00:43:56.504Z,7.77
2022-09-01T00:46:59.352Z,6.00
2022-09-01T00:50:04.472Z,6.63
2022-09-01T00:53:08.251Z,8.93
2022-09-01T00:56:10.761Z,8.52
2022-09-01T00:59:13.469Z,8.37
2022-09-01T01:02:16.272Z,10.18
2022-09-01T01:05:18.972Z,7.00
2022-09-01T01:08:36.673Z,6.03
2022-09-01T01:11:40.032Z,7.15
2022-09-01T01:14:45.807Z,6.80
2022-09-01T01:17:48.181Z,7.07
2022-09-01T01:21:34.619Z,8.30
2022-09-01T01:24:37.029Z,6.00
2022-09-01T01:27:43.120Z,7.22
2022-09-01T01:30:52.802Z,12.67
2022-09-01T01:33:56.842Z,10.60
2022-09-01T01:36:59.992Z,9.05
2022-09-01T01:40:03.076Z,9.38
2022-09-01T01:43:06.050Z,12.43
2022-09-01T01:46:10.233Z,12.87
2022-09-01T01:49:20.041Z,9.63
2022-09-01T01:52:26.290Z,8.77
2022-09-01T01:55:30.902Z,7.60
2022-09-01T01:58:36.033Z,8.10
2022-09-01T02:01:51.423Z,7.37
2022-09-01T02:04:55.090Z,6.00
2022-09-01T02:08:06.681Z,6.80
2022-09-01T02:11:09.278Z,8.02
2022-09-01T02:14:13.521Z,9.98
2022-09-01T02:17:16.443Z,8.33
2022-09-01T02:20:18.756Z,7.07
2022-09-01T02:23:25.417Z,7.45
2022-09-01T02:26:34.298Z,8.15
2022-09-01T02:29:43.235Z,7.47
2022-09-01T02:32:46.000Z,13.60
2022-09-01T02:35:51.482Z,10.02
2022-09-01T02:38:56.353Z,9.38
2022-09-01T02:42:01.424Z,10.95
2022-09-01T02:45:04.589Z,11.48
2022-09-01T02:48:09.794Z,20.40
2022-09-01T02:51:16.466Z,12.70
2022-09-01T02:54:19.314Z,7.43
2022-09-01T02:57:23.065Z,7.38
2022-09-01T03:00:33.424Z,9.07
2022-09-01T03:03:35.905Z,8.47
2022-09-01T03:06:39.341Z,8.07
2022-09-01T03:09:43.341Z,7.60
2022-09-01T03:12:45.588Z,8.18
2022-09-01T03:15:51.298Z,8.40
2022-09-01T03:18:53.656Z,8.60
2022-09-01T03:22:00.256Z,8.55
2022-09-01T03:25:06.322Z,9.57
2022-09-01T03:28:10.527Z,8.80
2022-09-01T03:31:13.022Z,9.05
2022-09-01T03:34:16.618Z,9.30
2022-09-01T03:37:24.636Z,10.77
2022-09-01T03:40:33.313Z,9.75
2022-09-01T03:43:36.298Z,11.50
2022-09-01T03:46:40.478Z,8.75
2022-09-01T03:49:43.695Z,9.20
2022-09-01T03:53:06.252Z,9.95
2022-09-01T03:56:09.101Z,10.52
2022-09-01T03:59:17.327Z,9.55
2022-09-01T04:02:23.096Z,10.15
2022-09-01T04:05:30.077Z,10.00
2022-09-01T04:08:33.354Z,9.80
2022-09-01T04:11:42.450Z,10.77
2022-09-01T04:14:48.582Z,10.50
2022-09-01T04:18:09.457Z,13.40
2022-09-01T04:21:12.379Z,13.60
2022-09-01T04:24:15.460Z,10.98
2022-09-01T04:27:24.903Z,11.70
2022-09-01T04:30:31.845Z,8.30
2022-09-01T04:33:39.905Z,10.38
2022-09-01T04:36:44.779Z,11.17
2022-09-01T04:39:55.691Z,9.32
2022-09-01T04:42:59.131Z,10.60
2022-09-01T04:46:01.686Z,10.73
2022-09-01T04:49:13.042Z,11.85
2022-09-01T04:52:16.086Z,11.43
2022-09-01T04:55:18.332Z,10.40
2022-09-01T04:58:21.195Z,15.38
2022-09-01T05:01:25.577Z,8.82
2022-09-01T05:04:33.810Z,10.52
2022-09-01T05:07:38.060Z,10.43
2022-09-01T05:10:42.262Z,14.25
2022-09-01T05:13:57.834Z,10.73
2022-09-01T05:17:00.394Z,9.13
2022-09-01T05:20:03.746Z,10.68
2022-09-01T05:23:05.788Z,8.53
2022-09-01T05:26:34.723Z,9.30
2022-09-01T05:29:38.062Z,9.70
2022-09-01T05:32:41.528Z,8.57
2022-09-01T05:35:52.355Z,10.80
2022-09-01T05:38:54.804Z,13.40
2022-09-01T05:41:58.508Z,9.23
2022-09-01T05:45:02.401Z,8.13
2022-09-01T05:48:05.996Z,9.35
2022-09-01T05:51:27.524Z,7.72
2022-09-01T05:54:32.643Z,10.40
2022-09-01T05:57:36.174Z,11.00
2022-09-01T06:00:38.575Z,10.55
2022-09-01T06:03:42.510Z,9.50
2022-09-01T06:07:05.931Z,7.28
2022-09-01T06:10:11.322Z,8.67
2022-09-01T06:13:16.451Z,7.10
2022-09-01T06:16:20.221Z,7.25
2022-09-01T06:19:23.375Z,7.95
2022-09-01T06:22:28.032Z,8.00
2022-09-01T06:25:30.722Z,6.70
2022-09-01T06:28:33.640Z,5.97
2022-09-01T06:31:39.337Z,7.45
2022-09-01T06:34:44.619Z,6.95
2022-09-01T06:37:48.581Z,8.02
2022-09-01T06:41:17.781Z,5.83
2022-09-01T06:44:23.143Z,7.15
2022-09-01T06:47:33.205Z,5.30
2022-09-01T06:53:59.742Z,5.43
2022-09-01T07:00:29.406Z,6.72
2022-09-01T07:03:32.165Z,6.97
2022-09-01T07:14:17.695Z,5.40
2022-09-01T07:17:23.711Z,5.93
2022-09-01T07:20:29.173Z,5.57
2022-09-01T07:23:46.491Z,7.30
2022-09-01T07:26:53.464Z,5.05
2022-09-01T07:29:57.270Z,5.67
2022-09-01T07:33:41.588Z,5.70
2022-09-01T07:36:26.818Z,5.38
2022-09-01T07:42:31.866Z,6.10
2022-09-01T07:43:22.319Z,5.28
2022-09-01T07:47:19.619Z,5.30
2022-09-01T07:53:37.962Z,8.07
2022-09-01T07:56:44.992Z,6.10
2022-09-01T07:59:48.086Z,5.57
2022-09-01T08:02:57.340Z,5.70
2022-09-01T08:06:10.426Z,5.80
2022-09-01T08:09:32.779Z,6.88
2022-09-01T08:12:35.544Z,7.80
2022-09-01T08:16:06.533Z,6.28
2022-09-01T08:19:03.478Z,4.67
2022-09-01T08:22:13.262Z,5.03
2022-09-01T08:25:25.166Z,4.78
2022-09-01T08:28:29.778Z,4.43
2022-09-01T08:31:32.601Z,7.00
2022-09-01T08:34:37.456Z,6.90
2022-09-01T08:37:39.988Z,4.82
2022-09-01T08:40:43.670Z,4.82
2022-09-01T08:44:08.583Z,3.88
2022-09-01T08:47:15.277Z,4.75
2022-09-01T08:50:20.763Z,4.27
2022-09-01T08:53:56.978Z,4.82
2022-09-01T08:57:02.032Z,3.47
2022-09-01T09:00:25.761Z,4.28
2022-09-01T09:03:48.262Z,3.70
2022-09-01T09:06:51.466Z,3.20
2022-09-01T09:09:57.101Z,4.63
2022-09-01T09:13:08.257Z,3.25
2022-09-01T09:16:13.460Z,4.43
2022-09-01T09:19:30.448Z,4.03
2022-09-01T09:22:33.088Z,3.80
2022-09-01T09:25:35.050Z,7.13
2022-09-01T09:28:38.638Z,5.28
2022-09-01T09:31:46.006Z,3.67
2022-09-01T09:34:48.334Z,4.55
2022-09-01T09:37:50.496Z,3.77
2022-09-01T09:44:29.975Z,3.15
2022-09-01T09:47:44.717Z,3.03
2022-09-01T09:50:47.078Z,3.55
2022-09-01T09:53:50.452Z,3.60
2022-09-01T09:57:05.102Z,2.40
2022-09-01T10:00:16.076Z,3.70
2022-09-01T10:03:34.694Z,3.00
2022-09-01T10:06:41.535Z,2.63
2022-09-01T10:09:44.305Z,2.73
2022-09-01T10:12:47.085Z,2.92
2022-09-01T10:15:51.649Z,2.55
2022-09-01T10:19:01.056Z,4.53
2022-09-01T10:22:04.054Z,2.97
2022-09-01T10:25:10.540Z,2.47
2022-09-01T10:28:21.427Z,3.20
2022-09-01T10:31:32.165Z,2.47
2022-09-01T10:34:36.446Z,2.88
2022-09-01T10:37:42.507Z,2.33
2022-09-01T10:40:49.667Z,2.30
2022-09-01T10:43:52.344Z,2.38
2022-09-01T10:46:59.934Z,2.53
2022-09-01T10:50:09.795Z,3.05
2022-09-01T10:53:33.942Z,2.60
2022-09-01T10:56:43.584Z,6.57
2022-09-01T10:59:56.859Z,3.63
2022-09-01T11:07:11.238Z,2.97
2022-09-01T11:10:31.675Z,3.15
2022-09-01T11:13:45.255Z,2.07
2022-09-01T11:17:09.814Z,3.13
2022-09-01T11:20:33.439Z,5.70
2022-09-01T11:23:35.519Z,2.03
2022-09-01T11:26:45.912Z,2.30
2022-09-01T11:30:09.189Z,2.87
2022-09-01T11:33:11.676Z,3.42
2022-09-01T11:36:19.085Z,2.88
2022-09-01T11:39:31.192Z,2.72
2022-09-01T11:42:40.746Z,3.30
2022-09-01T11:46:13.076Z,2.13
2022-09-01T11:49:28.714Z,3.60
2022-09-01T11:52:35.869Z,3.53
2022-09-01T11:55:42.732Z,3.70
2022-09-01T11:58:45.022Z,2.58
2022-09-01T12:01:47.273Z,2.20
2022-09-01T12:04:50.809Z,2.85
2022-09-01T12:07:53.227Z,2.50
2022-09-01T12:11:10.099Z,2.67
2022-09-01T12:14:20.624Z,2.38
2022-09-01T12:17:23.581Z,2.30
2022-09-01T12:20:29.840Z,2.95
2022-09-01T12:23:35.368Z,2.00
2022-09-01T12:26:38.113Z,2.15
2022-09-01T12:29:41.123Z,2.20
2022-09-01T12:32:44.092Z,2.37
2022-09-01T12:35:47.190Z,3.42
2022-09-01T12:38:54.284Z,1.98
2022-09-01T12:42:25.112Z,3.03
2022-09-01T12:45:47.493Z,2.53
2022-09-01T12:48:50.944Z,2.97
2022-09-01T12:52:40.519Z,2.20
2022-09-01T13:00:33.137Z,2.38
2022-09-01T13:03:36.148Z,11.10
2022-09-01T13:06:39.250Z,3.00
2022-09-01T13:09:42.754Z,2.35
2022-09-01T13:12:45.774Z,2.50
2022-09-01T13:15:50.832Z,2.40
2022-09-01T13:22:15.283Z,2.80
2022-09-01T13:25:19.464Z,1.80
2022-09-01T13:31:32.156Z,1.88
2022-09-01T13:34:35.608Z,1.75
2022-09-01T13:37:38.256Z,1.97
2022-09-01T13:40:40.470Z,2.45
2022-09-01T13:47:28.264Z,2.00
2022-09-01T13:50:12.027Z,2.38
2022-09-01T13:53:14.654Z,1.90
2022-09-01T13:56:16.794Z,2.33
2022-09-01T13:59:18.961Z,3.13
2022-09-01T14:02:22.373Z,2.88
2022-09-01T14:05:32.641Z,2.95
2022-09-01T14:08:35.729Z,1.93
2022-09-01T14:11:39.031Z,2.50
2022-09-01T14:18:05.597Z,3.17
2022-09-01T14:21:12.784Z,2.10
2022-09-01T14:24:20.386Z,1.97
2022-09-01T14:27:23.170Z,2.78
2022-09-01T14:30:31.208Z,2.90
2022-09-01T14:33:34.177Z,2.53
2022-09-01T14:36:36.361Z,2.10
2022-09-01T14:39:39.010Z,2.53
2022-09-01T14:42:43.893Z,2.50
2022-09-01T14:45:48.201Z,2.15
2022-09-01T14:48:50.990Z,3.60
2022-09-01T14:55:16.924Z,3.23
2022-09-01T14:58:20.142Z,2.63
2022-09-01T15:01:34.216Z,1.95
2022-09-01T15:04:37.864Z,2.72
2022-09-01T15:07:40.839Z,2.08
2022-09-01T15:10:43.534Z,2.70
2022-09-01T15:13:46.133Z,1.95
2022-09-01T15:16:48.427Z,2.50
2022-09-01T15:19:50.794Z,2.30
2022-09-01T15:22:53.100Z,2.15
2022-09-01T15:25:55.869Z,3.10
2022-09-01T15:28:58.451Z,1.92
2022-09-01T15:32:03.672Z,2.15
2022-09-01T15:35:07.370Z,1.90
2022-09-01T15:38:10.402Z,2.45
2022-09-01T15:41:19.841Z,1.53
2022-09-01T15:44:22.126Z,2.40
2022-09-01T15:47:24.410Z,2.20
2022-09-01T15:50:27.902Z,2.72
2022-09-01T15:53:30.730Z,1.77
2022-09-01T15:56:33.524Z,4.97
2022-09-01T15:59:35.786Z,2.65
2022-09-01T16:02:38.194Z,3.33
2022-09-01T16:05:41.107Z,2.00
2022-09-01T16:08:43.681Z,3.40
2022-09-01T16:11:45.855Z,2.80
2022-09-01T16:14:49.317Z,2.25
2022-09-01T16:17:55.175Z,3.40
2022-09-01T16:21:22.261Z,2.28
2022-09-01T16:24:25.308Z,2.13
2022-09-01T16:27:45.759Z,2.33
2022-09-01T16:30:49.776Z,3.08
2022-09-01T16:33:55.992Z,2.83
2022-09-01T16:37:07.097Z,1.83
2022-09-01T16:40:21.908Z,2.92
2022-09-01T16:43:36.351Z,2.93
2022-09-01T16:46:45.717Z,2.13
2022-09-01T16:50:06.772Z,3.40
2022-09-01T16:53:18.134Z,4.13
2022-09-01T16:56:25.365Z,4.35
2022-09-01T16:59:36.455Z,3.33
2022-09-01T17:03:08.053Z,4.00
2022-09-01T17:06:15.157Z,4.32
2022-09-01T17:09:41.263Z,2.70
2022-09-01T17:12:51.060Z,3.50
2022-09-01T17:16:02.594Z,3.37
2022-09-01T17:19:08.297Z,3.05
2022-09-01T17:22:13.171Z,3.25
2022-09-01T17:25:26.054Z,3.70
2022-09-01T17:28:48.944Z,3.70
2022-09-01T17:32:23.795Z,2.93
2022-09-01T17:36:02.570Z,3.92
2022-09-01T17:39:16.509Z,2.78
2022-09-01T17:42:36.665Z,2.85
2022-09-01T17:46:04.508Z,4.63
2022-09-01T17:49:28.684Z,3.13
2022-09-01T17:52:40.142Z,3.50
2022-09-01T17:56:02.259Z,4.03
2022-09-01T17:59:29.403Z,4.10
2022-09-01T18:02:52.298Z,3.97
2022-09-01T18:06:12.889Z,5.63
2022-09-01T18:09:21.341Z,5.35
2022-09-01T18:12:28.417Z,5.97
2022-09-01T18:15:41.090Z,4.88
2022-09-01T18:18:48.736Z,3.70
2022-09-01T18:22:01.450Z,5.10
2022-09-01T18:25:07.726Z,3.78
2022-09-01T18:28:10.510Z,3.17
2022-09-01T18:31:24.556Z,5.03
2022-09-01T18:34:49.792Z,4.15
2022-09-01T18:38:16.956Z,3.37
2022-09-01T18:41:38.519Z,3.90
2022-09-01T18:45:05.576Z,3.58
2022-09-01T18:48:41.811Z,3.63
2022-09-01T18:51:46.964Z,4.40
2022-09-01T18:55:15.129Z,3.30
2022-09-01T18:59:01.844Z,4.97
2022-09-01T19:02:22.730Z,3.08
2022-09-01T19:05:33.271Z,2.95
2022-09-01T19:08:57.392Z,3.50
2022-09-01T19:12:15.612Z,3.00
2022-09-01T19:15:26.257Z,3.88
2022-09-01T19:18:52.077Z,3.55
2022-09-01T19:21:56.334Z,5.60
2022-09-01T19:25:22.824Z,3.10
2022-09-01T19:28:33.660Z,4.30
2022-09-01T19:31:42.724Z,4.53
2022-09-01T19:34:54.099Z,4.65
2022-09-01T19:37:56.620Z,4.38
2022-09-01T19:41:15.979Z,3.10
2022-09-01T19:44:47.089Z,4.50
2022-09-01T19:48:13.415Z,4.30
2022-09-01T19:51:22.661Z,7.40
2022-09-01T19:54:31.280Z,4.38
2022-09-01T19:57:45.565Z,3.35
2022-09-01T20:00:57.264Z,5.40
2022-09-01T20:04:22.171Z,3.15
2022-09-01T20:07:44.631Z,3.75
2022-09-01T20:11:35.327Z,6.65
2022-09-01T20:14:50.817Z,4.97
2022-09-01T20:18:04.125Z,3.87
2022-09-01T20:21:09.401Z,3.47
2022-09-01T20:24:38.540Z,4.55
2022-09-01T20:28:03.706Z,3.75
2022-09-01T20:31:14.661Z,4.07
2022-09-01T20:34:37.514Z,4.37
2022-09-01T20:37:55.642Z,3.72
2022-09-01T20:41:03.047Z,3.30
2022-09-01T20:44:07.382Z,3.55
2022-09-01T20:47:10.127Z,3.55
2022-09-01T20:50:13.941Z,4.03
2022-09-01T20:53:53.776Z,3.55
2022-09-01T20:57:14.694Z,3.65
2022-09-01T21:00:26.076Z,3.47
2022-09-01T21:03:51.331Z,4.35
2022-09-01T21:07:16.835Z,3.10
2022-09-01T21:10:33.162Z,2.88
2022-09-01T21:13:56.394Z,4.07
2022-09-01T21:17:31.195Z,3.08
2022-09-01T21:20:51.984Z,4.28
2022-09-01T21:23:54.162Z,3.10
2022-09-01T21:26:58.026Z,3.22
2022-09-01T21:30:09.815Z,3.50
2022-09-01T21:33:12.260Z,4.13
2022-09-01T21:36:14.526Z,3.20
2022-09-01T21:39:17.017Z,4.03
2022-09-01T21:42:26.575Z,3.67
2022-09-01T21:45:30.205Z,3.53
2022-09-01T21:48:32.607Z,3.17
2022-09-01T21:51:34.864Z,3.25
2022-09-01T21:54:37.342Z,2.93
2022-09-01T21:57:39.885Z,2.75
2022-09-01T22:00:44.403Z,2.55
2022-09-01T22:03:46.641Z,2.40
2022-09-01T22:06:48.817Z,2.72
2022-09-01T22:09:51.399Z,2.10
2022-09-01T22:12:54.791Z,2.30
2022-09-01T22:15:56.948Z,2.75
2022-09-01T22:19:00.109Z,2.70
2022-09-01T22:22:03.245Z,2.58
2022-09-01T22:25:08.143Z,2.80
2022-09-01T22:28:10.898Z,2.30
2022-09-01T22:31:18.043Z,2.50
2022-09-01T22:34:20.319Z,2.20
2022-09-01T22:37:23.097Z,2.47
2022-09-01T22:40:25.324Z,4.20
2022-09-01T22:43:28.943Z,1.88
2022-09-01T22:46:32.223Z,2.15
2022-09-01T22:49:34.389Z,2.00
2022-09-01T22:52:37.194Z,2.78
2022-09-01T22:55:40.716Z,2.70
2022-09-01T22:58:44.880Z,3.28
2022-09-01T23:01:47.770Z,3.47
2022-09-01T23:04:50.461Z,2.63
2022-09-01T23:07:53.078Z,2.55
2022-09-01T23:10:55.244Z,3.10
2022-09-01T23:13:58.096Z,2.10
2022-09-01T23:17:00.380Z,2.70
2022-09-01T23:20:03.571Z,4.32
2022-09-01T23:23:05.944Z,2.50
2022-09-01T23:26:09.331Z,3.10
2022-09-01T23:29:11.892Z,2.38
2022-09-01T23:32:14.145Z,2.38
2022-09-01T23:35:16.622Z,2.45
2022-09-01T23:38:20.285Z,3.05
2022-09-01T23:41:29.513Z,2.70
2022-09-01T23:44:31.729Z,2.90
2022-09-01T23:47:33.919Z,3.13
2022-09-01T23:50:43.985Z,2.15
2022-09-01T23:53:46.661Z,2.35
2022-09-01T23:56:48.854Z,1.87
2022-09-01T23:59:50.994Z,2.83
